createdAt,value
2019-02-26T00:01:59.929Z,71.25
2019-02-26T00:04:10.313Z,71.85
2019-02-26T00:06:22.787Z,71.95
2019-02-26T00:08:33.868Z,71.84
2019-02-26T00:10:44.658Z,72.27
2019-02-26T00:13:15.366Z,72.51
2019-02-26T00:15:26.266Z,72.67
2019-02-26T00:17:40.451Z,72.05
2019-02-26T00:19:49.784Z,71.33
2019-02-26T00:22:00.601Z,71.77
2019-02-26T00:24:12.818Z,72.39
2019-02-26T00:26:24.139Z,72.68
2019-02-26T00:28:36.531Z,72.71
2019-02-26T00:30:47.691Z,72.90
2019-02-26T00:33:00.113Z,72.82
2019-02-26T00:35:11.313Z,72.95
2019-02-26T00:37:24.219Z,72.56
2019-02-26T00:39:34.892Z,72.21
2019-02-26T00:41:49.309Z,72.08
2019-02-26T00:43:59.846Z,72.53
2019-02-26T00:46:11.327Z,72.64
2019-02-26T00:48:22.148Z,73.14
2019-02-26T00:50:35.026Z,72.81
2019-02-26T00:52:45.924Z,72.63
2019-02-26T00:55:18.508Z,72.74
2019-02-26T00:57:31.255Z,73.08
2019-02-26T00:59:44.063Z,73.06
2019-02-26T01:01:56.619Z,73.46
2019-02-26T01:04:07.487Z,73.89
2019-02-26T01:06:18.293Z,73.91
2019-02-26T01:08:29.072Z,73.70
2019-02-26T01:10:41.528Z,73.32
2019-02-26T01:12:52.616Z,73.07
2019-02-26T01:15:25.520Z,72.87
2019-02-26T01:17:38.360Z,73.05
2019-02-26T01:19:49.043Z,72.93
2019-02-26T01:21:59.826Z,73.25
2019-02-26T01:24:10.667Z,73.36
2019-02-26T01:26:21.472Z,73.51
2019-02-26T01:28:32.316Z,73.38
2019-02-26T01:30:43.156Z,73.49
2019-02-26T01:32:53.939Z,73.36
2019-02-26T01:35:05.999Z,73.08
2019-02-26T01:37:17.711Z,73.05
2019-02-26T01:39:28.534Z,73.09
2019-02-26T01:41:41.408Z,73.03
2019-02-26T01:43:52.070Z,73.12
2019-02-26T01:46:02.874Z,73.35
2019-02-26T01:48:17.983Z,73.16
2019-02-26T01:50:28.026Z,73.29
2019-02-26T01:52:39.204Z,73.38
2019-02-26T01:54:51.357Z,73.98
2019-02-26T01:57:02.846Z,74.28
2019-02-26T01:59:18.267Z,74.39
2019-02-26T02:01:26.392Z,74.59
2019-02-26T02:03:57.069Z,74.82
2019-02-26T02:06:10.651Z,74.82
2019-02-26T02:08:22.617Z,74.67
2019-02-26T02:10:33.449Z,75.31
2019-02-26T02:12:44.251Z,75.47
2019-02-26T02:14:55.070Z,75.14
2019-02-26T02:17:06.547Z,75.50
2019-02-26T02:19:22.314Z,75.55
2019-02-26T02:21:33.300Z,75.61
2019-02-26T02:23:44.843Z,76.18
2019-02-26T02:25:59.810Z,76.53
2019-02-26T02:28:09.474Z,76.28
2019-02-26T02:30:26.820Z,75.41
2019-02-26T02:32:34.464Z,75.37
2019-02-26T02:34:45.683Z,75.16
2019-02-26T02:36:56.597Z,74.90
2019-02-26T02:39:10.423Z,74.99
2019-02-26T02:41:20.225Z,75.25
2019-02-26T02:43:31.043Z,75.50
2019-02-26T02:45:41.852Z,75.88
2019-02-26T02:47:57.841Z,75.81
2019-02-26T02:50:25.213Z,75.42
2019-02-26T02:52:37.921Z,75.51
2019-02-26T02:54:49.920Z,75.60
2019-02-26T02:57:02.576Z,75.77
2019-02-26T02:59:16.468Z,75.55
2019-02-26T03:01:28.661Z,75.41
2019-02-26T03:03:39.574Z,75.71
2019-02-26T03:05:50.387Z,76.18
2019-02-26T03:08:01.198Z,76.54
2019-02-26T03:10:53.638Z,76.50
2019-02-26T03:13:04.461Z,76.43
2019-02-26T03:15:15.575Z,76.67
2019-02-26T03:17:26.363Z,76.60
2019-02-26T03:19:40.675Z,76.53
2019-02-26T03:21:52.428Z,76.26
2019-02-26T03:24:03.574Z,76.10
2019-02-26T03:26:17.676Z,76.21
2019-02-26T03:28:28.188Z,76.24
2019-02-26T03:30:43.840Z,76.51
2019-02-26T03:32:58.650Z,77.19
2019-02-26T03:35:46.039Z,77.28
2019-02-26T03:37:58.151Z,76.93
2019-02-26T03:40:51.993Z,76.45
2019-02-26T03:43:05.462Z,76.28
2019-02-26T03:45:23.835Z,76.42
2019-02-26T03:47:29.564Z,76.14
2019-02-26T03:49:42.248Z,76.06
2019-02-26T03:51:53.085Z,75.90
2019-02-26T03:54:03.907Z,75.50
2019-02-26T03:56:56.357Z,75.13
2019-02-26T03:59:09.546Z,74.61
2019-02-26T04:01:21.618Z,74.79
2019-02-26T04:03:34.687Z,74.67
2019-02-26T04:05:45.318Z,74.34
2019-02-26T04:07:58.927Z,74.41
2019-02-26T04:10:52.897Z,74.30
2019-02-26T04:13:03.221Z,74.17
2019-02-26T04:15:57.115Z,74.25
2019-02-26T04:18:08.379Z,74.79
2019-02-26T04:20:19.199Z,75.39
2019-02-26T04:23:14.178Z,75.47
2019-02-26T04:26:04.107Z,75.77
2019-02-26T04:28:57.410Z,76.56
2019-02-26T04:31:52.179Z,76.56
2019-02-26T04:34:43.376Z,76.96
2019-02-26T04:37:35.245Z,77.38
2019-02-26T04:40:28.364Z,77.10
2019-02-26T04:43:18.806Z,76.97
2019-02-26T04:46:10.898Z,76.82
2019-02-26T04:49:03.704Z,76.45
2019-02-26T04:51:14.529Z,76.14
2019-02-26T04:53:28.217Z,76.12
2019-02-26T04:55:39.107Z,76.33
2019-02-26T04:58:34.427Z,76.42
2019-02-26T05:00:45.200Z,76.38
2019-02-26T05:02:56.018Z,76.59
2019-02-26T05:05:51.446Z,76.65
2019-02-26T05:08:04.058Z,76.86
2019-02-26T05:10:13.906Z,76.19
2019-02-26T05:12:25.445Z,75.79
2019-02-26T05:14:37.422Z,75.89
2019-02-26T05:16:48.216Z,76.28
2019-02-26T05:18:59.055Z,76.93
2019-02-26T05:21:10.869Z,76.90
2019-02-26T05:23:23.263Z,76.50
2019-02-26T05:25:39.259Z,77.39
2019-02-26T05:27:50.225Z,77.40
2019-02-26T05:30:00.814Z,77.29
2019-02-26T05:32:11.705Z,77.34
2019-02-26T05:34:23.174Z,77.33
2019-02-26T05:36:37.280Z,77.22
2019-02-26T05:38:49.259Z,77.34
2019-02-26T05:41:00.662Z,77.32
2019-02-26T05:43:11.507Z,77.43
2019-02-26T05:45:23.833Z,77.92
2019-02-26T05:47:35.006Z,77.73
2019-02-26T05:49:46.001Z,77.33
2019-02-26T05:52:01.033Z,77.20
2019-02-26T05:54:12.188Z,77.16
2019-02-26T05:56:24.050Z,77.26
2019-02-26T05:58:36.284Z,77.55
2019-02-26T06:00:47.709Z,77.75
2019-02-26T06:02:58.510Z,77.98
2019-02-26T06:05:11.622Z,78.37
2019-02-26T06:07:24.461Z,78.31
2019-02-26T06:09:34.753Z,78.50
2019-02-26T06:11:49.374Z,79.07
2019-02-26T06:14:01.333Z,79.36
2019-02-26T06:16:11.015Z,80.25
2019-02-26T06:18:21.831Z,78.83
2019-02-26T06:20:36.095Z,78.03
2019-02-26T06:22:45.362Z,78.10
2019-02-26T06:24:59.505Z,78.28
2019-02-26T06:27:13.111Z,78.30
2019-02-26T06:29:22.606Z,78.29
2019-02-26T06:31:34.393Z,78.22
2019-02-26T06:33:47.525Z,78.15
2019-02-26T06:35:59.843Z,78.39
2019-02-26T06:38:11.690Z,78.54
2019-02-26T06:40:23.354Z,78.34
2019-02-26T06:42:35.515Z,78.20
2019-02-26T06:44:48.873Z,77.91
2019-02-26T06:47:00.327Z,77.64
2019-02-26T06:49:12.324Z,77.46
2019-02-26T06:51:24.321Z,77.59
2019-02-26T06:53:35.842Z,77.66
2019-02-26T06:55:46.657Z,77.65
2019-02-26T06:58:38.137Z,77.51
2019-02-26T07:00:54.715Z,77.29
2019-02-26T07:03:44.596Z,76.98
2019-02-26T07:05:55.414Z,76.73
2019-02-26T07:08:06.666Z,76.32
2019-02-26T07:10:23.668Z,75.81
2019-02-26T07:12:31.850Z,75.43
2019-02-26T07:14:42.663Z,75.82
2019-02-26T07:16:53.477Z,76.14
2019-02-26T07:19:06.399Z,76.46
2019-02-26T07:21:17.015Z,76.44
2019-02-26T07:23:29.762Z,76.96
2019-02-26T07:25:42.176Z,77.02
2019-02-26T07:27:55.441Z,77.12
2019-02-26T07:30:47.597Z,77.00
2019-02-26T07:32:58.423Z,76.90
2019-02-26T07:35:11.078Z,76.44
2019-02-26T07:37:21.959Z,75.01
2019-02-26T07:39:32.760Z,72.70
2019-02-26T07:41:44.640Z,71.06
2019-02-26T07:43:56.300Z,69.49
2019-02-26T07:46:09.386Z,67.39
2019-02-26T07:48:21.263Z,65.87
2019-02-26T07:50:37.454Z,65.12
2019-02-26T07:52:47.218Z,63.24
2019-02-26T07:54:58.001Z,61.60
2019-02-26T07:57:08.864Z,60.30
2019-02-26T07:59:27.412Z,59.26
2019-02-26T08:01:32.459Z,58.57
2019-02-26T08:03:44.053Z,57.21
2019-02-26T08:05:55.985Z,56.83
2019-02-26T08:08:06.800Z,56.21
2019-02-26T08:10:19.521Z,55.69
2019-02-26T08:12:32.703Z,54.60
2019-02-26T08:14:45.232Z,54.43
2019-02-26T08:16:56.763Z,54.10
2019-02-26T08:19:08.440Z,53.88
2019-02-26T08:21:21.747Z,53.68
2019-02-26T08:23:31.984Z,52.48
2019-02-26T08:25:42.772Z,51.78
2019-02-26T08:27:54.688Z,50.79
2019-02-26T08:30:49.901Z,50.43
2019-02-26T08:33:02.659Z,49.83
2019-02-26T08:35:17.873Z,49.34
2019-02-26T08:37:26.328Z,49.87
2019-02-26T08:39:38.002Z,49.95
2019-02-26T08:42:09.704Z,49.59
2019-02-26T08:44:20.516Z,48.84
2019-02-26T08:46:31.467Z,48.32
2019-02-26T08:48:45.531Z,47.23
2019-02-26T08:50:55.796Z,47.50
2019-02-26T08:53:07.718Z,48.03
2019-02-26T08:55:21.510Z,47.75
2019-02-26T08:57:31.275Z,46.82
2019-02-26T08:59:44.178Z,47.34
2019-02-26T09:01:54.933Z,47.40
2019-02-26T09:04:05.746Z,47.36
2019-02-26T09:06:16.565Z,47.41
2019-02-26T09:08:27.362Z,47.36
2019-02-26T09:10:38.741Z,47.70
2019-02-26T09:12:51.859Z,46.86
2019-02-26T09:15:45.237Z,46.78
2019-02-26T09:17:56.044Z,45.64
2019-02-26T09:20:26.725Z,45.85
2019-02-26T09:22:37.543Z,45.32
2019-02-26T09:24:49.459Z,45.29
2019-02-26T09:27:03.289Z,45.23
2019-02-26T09:29:15.530Z,45.33
2019-02-26T09:31:26.583Z,45.83
2019-02-26T09:33:38.701Z,44.70
2019-02-26T09:35:52.045Z,44.66
2019-02-26T09:38:02.933Z,44.28
2019-02-26T09:40:57.093Z,44.11
2019-02-26T09:43:08.091Z,44.21
2019-02-26T09:46:00.570Z,44.66
2019-02-26T09:48:12.227Z,44.95
2019-02-26T09:50:24.116Z,44.35
2019-02-26T09:52:35.040Z,43.11
2019-02-26T09:54:48.116Z,43.71
2019-02-26T09:56:58.581Z,43.56
2019-02-26T09:59:10.288Z,42.95
2019-02-26T10:01:22.098Z,43.51
2019-02-26T10:03:36.756Z,43.71
2019-02-26T10:05:47.680Z,43.54
2019-02-26T10:08:00.464Z,43.56
2019-02-26T10:10:33.185Z,43.37
2019-02-26T10:12:43.641Z,43.57
2019-02-26T10:14:55.714Z,43.71
2019-02-26T10:17:09.081Z,43.89
2019-02-26T10:19:19.934Z,43.76
2019-02-26T10:21:33.123Z,44.07
2019-02-26T10:23:47.193Z,44.33
2019-02-26T10:25:57.910Z,44.13
2019-02-26T10:28:11.417Z,43.32
2019-02-26T10:30:21.666Z,42.69
2019-02-26T10:32:32.882Z,42.88
2019-02-26T10:34:45.184Z,42.55
2019-02-26T10:36:55.969Z,43.31
2019-02-26T10:39:08.312Z,42.81
2019-02-26T10:41:21.113Z,43.00
2019-02-26T10:43:32.377Z,43.43
2019-02-26T10:45:44.799Z,43.25
2019-02-26T10:47:56.904Z,43.18
2019-02-26T10:50:51.878Z,42.94
2019-02-26T10:53:09.727Z,43.17
2019-02-26T10:55:17.622Z,42.87
2019-02-26T10:57:30.646Z,42.50
2019-02-26T10:59:44.017Z,42.74
2019-02-26T11:01:55.265Z,42.12
2019-02-26T11:04:06.992Z,41.96
2019-02-26T11:06:25.497Z,42.26
2019-02-26T11:08:36.289Z,41.75
2019-02-26T11:10:49.673Z,41.69
2019-02-26T11:12:59.911Z,42.61
2019-02-26T11:15:53.869Z,42.71
2019-02-26T11:18:05.046Z,42.61
2019-02-26T11:20:59.286Z,41.56
2019-02-26T11:23:13.257Z,41.55
2019-02-26T11:25:24.872Z,41.47
2019-02-26T11:27:37.867Z,41.49
2019-02-26T11:29:48.549Z,41.81
2019-02-26T11:32:01.507Z,41.99
2019-02-26T11:34:13.383Z,41.88
2019-02-26T11:36:25.121Z,41.84
2019-02-26T11:38:39.574Z,41.56
2019-02-26T11:40:49.749Z,41.23
2019-02-26T11:43:10.899Z,41.03
2019-02-26T11:45:35.154Z,41.45
2019-02-26T11:48:28.937Z,41.07
2019-02-26T11:50:44.265Z,41.30
2019-02-26T11:52:54.969Z,40.83
2019-02-26T11:55:49.348Z,41.20
2019-02-26T11:58:00.096Z,40.66
2019-02-26T12:00:51.076Z,40.98
2019-02-26T12:03:01.984Z,41.04
2019-02-26T12:05:12.881Z,41.29
2019-02-26T12:07:25.590Z,40.36
2019-02-26T12:09:40.146Z,40.18
2019-02-26T12:11:49.141Z,40.30
2019-02-26T12:13:59.965Z,40.14
2019-02-26T12:16:10.759Z,40.43
2019-02-26T12:18:22.506Z,40.08
2019-02-26T12:20:35.566Z,40.53
2019-02-26T12:22:49.666Z,40.67
2019-02-26T12:25:01.861Z,40.43
2019-02-26T12:27:17.661Z,40.27
2019-02-26T12:29:26.421Z,39.93
2019-02-26T12:31:39.098Z,40.08
2019-02-26T12:33:50.980Z,39.76
2019-02-26T12:36:02.574Z,39.95
2019-02-26T12:38:18.862Z,40.00
2019-02-26T12:40:27.267Z,40.50
2019-02-26T12:42:38.125Z,39.36
2019-02-26T12:44:48.919Z,39.11
2019-02-26T12:47:00.429Z,39.30
2019-02-26T12:49:14.862Z,39.47
2019-02-26T12:51:26.274Z,39.93
2019-02-26T12:53:57.851Z,40.41
2019-02-26T12:56:08.990Z,40.17
2019-02-26T12:58:26.194Z,39.26
2019-02-26T13:00:34.869Z,39.72
2019-02-26T13:02:49.400Z,39.42
2019-02-26T13:04:59.703Z,39.14
2019-02-26T13:07:10.550Z,38.60
2019-02-26T13:09:26.469Z,39.04
2019-02-26T13:11:34.185Z,38.72
2019-02-26T13:13:48.082Z,38.84
2019-02-26T13:15:57.708Z,39.07
2019-02-26T13:18:08.504Z,38.88
2019-02-26T13:21:03.950Z,38.59
2019-02-26T13:23:20.083Z,39.05
2019-02-26T13:25:26.996Z,38.87
2019-02-26T13:27:43.206Z,38.82
2019-02-26T13:29:56.830Z,39.10
2019-02-26T13:32:08.021Z,39.44
2019-02-26T13:34:17.297Z,39.44
2019-02-26T13:36:28.161Z,39.55
2019-02-26T13:38:44.863Z,39.36
2019-02-26T13:40:51.614Z,39.02
2019-02-26T13:43:44.069Z,39.07
2019-02-26T13:45:54.881Z,38.81
2019-02-26T13:48:05.828Z,37.91
2019-02-26T13:50:38.952Z,37.85
2019-02-26T13:52:49.251Z,37.52
2019-02-26T13:55:00.262Z,38.13
2019-02-26T13:57:11.062Z,38.13
2019-02-26T13:59:21.902Z,38.21
2019-02-26T14:01:32.813Z,38.30
2019-02-26T14:03:43.655Z,38.11
2019-02-26T14:05:54.456Z,38.09
2019-02-26T14:08:05.382Z,37.83
2019-02-26T14:10:57.831Z,38.00
2019-02-26T14:13:08.662Z,38.38
2019-02-26T14:15:39.543Z,38.26
2019-02-26T14:17:50.425Z,38.05
2019-02-26T14:20:01.234Z,38.65
2019-02-26T14:22:12.035Z,38.43
2019-02-26T14:24:24.409Z,37.64
2019-02-26T14:26:35.554Z,38.08
2019-02-26T14:28:48.351Z,38.51
2019-02-26T14:30:59.253Z,39.11
2019-02-26T14:33:10.051Z,38.72
2019-02-26T14:35:20.881Z,39.17
2019-02-26T14:37:31.706Z,39.25
2019-02-26T14:39:42.498Z,39.30
2019-02-26T14:41:53.325Z,39.74
2019-02-26T14:44:04.135Z,39.16
2019-02-26T14:46:14.964Z,38.94
2019-02-26T14:48:25.832Z,39.43
2019-02-26T14:50:36.648Z,39.61
2019-02-26T14:52:47.569Z,39.88
2019-02-26T14:54:58.401Z,39.80
2019-02-26T14:57:09.231Z,39.96
2019-02-26T14:59:20.153Z,40.23
2019-02-26T15:01:30.975Z,39.78
2019-02-26T15:03:41.831Z,39.67
2019-02-26T15:05:54.555Z,40.08
2019-02-26T15:08:07.264Z,40.53
2019-02-26T15:10:59.728Z,40.73
2019-02-26T15:13:10.538Z,41.12
2019-02-26T15:15:21.490Z,41.15
2019-02-26T15:17:32.301Z,41.26
2019-02-26T15:19:49.596Z,41.28
2019-02-26T15:21:57.256Z,41.50
2019-02-26T15:24:08.598Z,41.64
2019-02-26T15:26:19.422Z,41.78
2019-02-26T15:28:30.329Z,41.95
2019-02-26T15:30:41.175Z,41.72
2019-02-26T15:32:52.213Z,41.99
2019-02-26T15:35:44.721Z,41.52
2019-02-26T15:37:55.508Z,41.29
2019-02-26T15:40:28.151Z,41.36
2019-02-26T15:42:38.978Z,41.39
2019-02-26T15:44:49.770Z,41.53
2019-02-26T15:47:02.289Z,41.55
2019-02-26T15:49:13.324Z,41.43
2019-02-26T15:51:24.152Z,41.58
2019-02-26T15:53:34.982Z,41.73
2019-02-26T15:55:45.771Z,41.88
2019-02-26T15:57:56.594Z,41.86
2019-02-26T16:00:49.051Z,41.95
2019-02-26T16:03:00.119Z,42.04
2019-02-26T16:05:12.659Z,41.97
2019-02-26T16:10:44.087Z,42.17
2019-02-26T16:15:55.651Z,42.46
2019-02-26T16:18:06.581Z,42.62
2019-02-26T16:20:59.004Z,42.74
2019-02-26T16:23:09.895Z,42.79
2019-02-26T16:25:20.841Z,42.77
2019-02-26T16:27:37.540Z,42.80
2019-02-26T16:29:44.433Z,42.74
2019-02-26T16:31:57.222Z,42.71
2019-02-26T16:34:07.991Z,42.72
2019-02-26T16:36:18.816Z,42.90
2019-02-26T16:38:29.633Z,43.17
2019-02-26T16:40:40.463Z,44.31
2019-02-26T16:42:51.278Z,45.50
2019-02-26T16:45:45.646Z,46.54
2019-02-26T16:47:57.379Z,46.78
2019-02-26T16:50:50.959Z,47.24
2019-02-26T16:53:01.766Z,47.74
2019-02-26T16:55:17.092Z,48.09
2019-02-26T16:57:28.168Z,48.39
2019-02-26T16:59:40.876Z,48.63
2019-02-26T17:01:54.980Z,48.75
2019-02-26T17:04:07.599Z,48.96
2019-02-26T17:06:20.511Z,49.26
2019-02-26T17:08:31.042Z,49.34
2019-02-26T17:10:41.955Z,49.70
2019-02-26T17:16:06.778Z,50.27
2019-02-26T17:18:17.623Z,50.64
2019-02-26T17:20:28.622Z,51.58
2019-02-26T17:22:41.050Z,51.79
2019-02-26T17:24:53.664Z,52.16
2019-02-26T17:27:05.740Z,52.18
2019-02-26T17:29:19.605Z,52.78
2019-02-26T17:31:30.774Z,52.88
2019-02-26T17:33:44.723Z,53.10
2019-02-26T17:35:55.980Z,53.20
2019-02-26T17:38:06.902Z,53.34
2019-02-26T17:40:37.586Z,53.48
2019-02-26T17:42:48.862Z,53.75
2019-02-26T17:45:01.214Z,54.28
2019-02-26T17:47:13.960Z,54.62
2019-02-26T17:49:24.977Z,55.04
2019-02-26T17:51:35.919Z,55.80
2019-02-26T17:53:46.719Z,56.03
2019-02-26T17:55:57.517Z,56.35
2019-02-26T17:58:10.572Z,56.34
2019-02-26T18:01:02.815Z,56.86
2019-02-26T18:03:13.648Z,56.88
2019-02-26T18:05:24.458Z,56.80
2019-02-26T18:07:38.295Z,56.78
2019-02-26T18:09:48.062Z,57.06
2019-02-26T18:11:59.790Z,57.13
2019-02-26T18:14:11.744Z,57.34
2019-02-26T18:16:22.568Z,57.93
2019-02-26T18:18:34.415Z,58.36
2019-02-26T18:20:46.247Z,58.38
2019-02-26T18:22:59.836Z,58.34
2019-02-26T18:25:51.426Z,58.50
2019-02-26T18:28:02.406Z,59.13
2019-02-26T18:30:54.870Z,59.56
2019-02-26T18:33:05.717Z,59.76
2019-02-26T18:35:16.558Z,59.79
2019-02-26T18:37:27.469Z,59.88
2019-02-26T18:39:38.357Z,59.75
2019-02-26T18:41:50.791Z,60.03
2019-02-26T18:44:21.769Z,59.98
2019-02-26T18:46:33.784Z,60.21
2019-02-26T18:48:48.337Z,60.30
2019-02-26T18:50:59.665Z,60.33
2019-02-26T18:53:11.714Z,60.65
2019-02-26T18:55:27.887Z,60.74
2019-02-26T18:57:36.407Z,60.62
2019-02-26T18:59:47.268Z,60.53
2019-02-26T19:01:58.098Z,60.80
2019-02-26T19:04:09.000Z,60.63
2019-02-26T19:06:19.862Z,60.91
2019-02-26T19:08:30.792Z,61.11
2019-02-26T19:10:41.672Z,61.50
2019-02-26T19:12:52.572Z,61.54
2019-02-26T19:15:47.565Z,62.00
2019-02-26T19:18:02.254Z,62.20
2019-02-26T19:20:52.209Z,62.63
2019-02-26T19:23:03.132Z,62.37
2019-02-26T19:25:14.068Z,62.37
2019-02-26T19:27:24.907Z,62.36
2019-02-26T19:29:35.726Z,62.26
2019-02-26T19:31:46.581Z,62.48
2019-02-26T19:33:57.408Z,62.52
2019-02-26T19:36:10.701Z,62.63
2019-02-26T19:38:20.983Z,62.98
2019-02-26T19:41:13.490Z,63.33
2019-02-26T19:43:26.082Z,63.41
2019-02-26T19:45:37.119Z,63.37
2019-02-26T19:47:47.982Z,63.36
2019-02-26T19:49:58.776Z,63.55
2019-02-26T19:52:09.643Z,63.77
2019-02-26T19:54:20.463Z,63.90
2019-02-26T19:56:31.468Z,63.91
2019-02-26T19:58:42.282Z,64.10
2019-02-26T20:00:53.830Z,64.00
2019-02-26T20:03:06.268Z,64.33
2019-02-26T20:05:18.663Z,64.17
2019-02-26T20:07:32.210Z,64.41
2019-02-26T20:09:42.251Z,64.78
2019-02-26T20:11:53.591Z,64.72
2019-02-26T20:14:05.826Z,64.88
2019-02-26T20:16:16.689Z,64.76
2019-02-26T20:18:27.528Z,64.84
2019-02-26T20:20:40.980Z,64.92
2019-02-26T20:22:51.147Z,64.85
2019-02-26T20:25:43.629Z,64.96
2019-02-26T20:27:56.264Z,65.05
2019-02-26T20:30:48.893Z,65.66
2019-02-26T20:33:01.526Z,65.48
2019-02-26T20:35:12.691Z,65.36
2019-02-26T20:37:24.418Z,65.29
2019-02-26T20:39:36.340Z,65.28
2019-02-26T20:41:47.145Z,65.10
2019-02-26T20:43:57.972Z,65.21
2019-02-26T20:46:08.818Z,65.48
2019-02-26T20:48:19.629Z,65.71
2019-02-26T20:50:30.573Z,66.26
2019-02-26T20:52:41.512Z,66.68
2019-02-26T20:54:52.297Z,66.86
2019-02-26T20:57:03.940Z,66.97
2019-02-26T20:59:17.990Z,66.92
2019-02-26T21:01:29.675Z,66.99
2019-02-26T21:03:41.416Z,67.30
2019-02-26T21:05:52.250Z,67.45
2019-02-26T21:08:03.081Z,67.40
2019-02-26T21:10:55.577Z,67.32
2019-02-26T21:13:06.461Z,67.26
2019-02-26T21:15:37.179Z,66.99
2019-02-26T21:17:47.997Z,67.31
2019-02-26T21:19:58.831Z,66.99
2019-02-26T21:22:09.641Z,66.97
2019-02-26T21:24:20.465Z,67.11
2019-02-26T21:26:31.294Z,67.19
2019-02-26T21:28:42.147Z,67.45
2019-02-26T21:30:52.982Z,67.75
2019-02-26T21:33:03.790Z,68.16
2019-02-26T21:35:14.705Z,68.38
2019-02-26T21:37:25.558Z,68.52
2019-02-26T21:39:36.377Z,68.50
2019-02-26T21:41:47.211Z,68.31
2019-02-26T21:43:58.046Z,68.06
2019-02-26T21:46:08.881Z,67.80
2019-02-26T21:48:39.563Z,68.40
2019-02-26T21:50:50.389Z,68.40
2019-02-26T21:53:01.230Z,68.63
2019-02-26T21:55:55.563Z,68.69
2019-02-26T21:58:06.407Z,68.74
2019-02-26T22:00:58.864Z,68.87
2019-02-26T22:03:09.728Z,69.20
2019-02-26T22:05:20.587Z,68.88
2019-02-26T22:07:31.395Z,68.82
2019-02-26T22:09:42.179Z,68.56
2019-02-26T22:11:53.287Z,68.57
2019-02-26T22:14:04.198Z,68.54
2019-02-26T22:16:17.497Z,68.85
2019-02-26T22:18:30.899Z,68.97
2019-02-26T22:20:40.465Z,68.49
2019-02-26T22:22:51.404Z,67.98
2019-02-26T22:25:43.850Z,68.17
2019-02-26T22:27:54.665Z,68.07
2019-02-26T22:30:47.102Z,67.96
2019-02-26T22:32:57.950Z,67.83
2019-02-26T22:35:08.833Z,68.01
2019-02-26T22:37:19.654Z,67.86
2019-02-26T22:39:30.466Z,67.15
2019-02-26T22:41:41.293Z,67.47
2019-02-26T22:43:52.119Z,67.48
2019-02-26T22:46:02.910Z,67.48
2019-02-26T22:48:14.234Z,67.70
2019-02-26T22:50:27.259Z,68.00
2019-02-26T22:52:39.187Z,68.29
2019-02-26T22:54:50.042Z,68.59
2019-02-26T22:57:00.853Z,68.95
2019-02-26T22:59:11.651Z,69.34
2019-02-26T23:02:04.137Z,69.06
2019-02-26T23:04:19.306Z,69.18
2019-02-26T23:06:29.481Z,68.88
2019-02-26T23:08:44.319Z,69.00
2019-02-26T23:10:56.886Z,69.48
2019-02-26T23:13:06.353Z,69.87
2019-02-26T23:15:17.184Z,70.49
2019-02-26T23:20:00.419Z,70.97
2019-02-26T23:22:11.325Z,71.11
2019-02-26T23:24:22.245Z,71.10
2019-02-26T23:29:05.617Z,71.23
2019-02-26T23:31:58.085Z,71.11
2019-02-26T23:34:08.901Z,70.55
2019-02-26T23:36:19.695Z,70.39
2019-02-26T23:38:50.357Z,70.24
2019-02-26T23:41:01.170Z,70.52
2019-02-26T23:43:12.524Z,70.29
2019-02-26T23:45:24.920Z,70.13
2019-02-26T23:47:35.725Z,69.92
2019-02-26T23:49:47.790Z,70.14
2019-02-26T23:51:59.219Z,70.23
2019-02-26T23:54:10.026Z,70.17
2019-02-26T23:56:20.857Z,70.13
2019-02-26T23:58:31.759Z,69.96
